Wind from 051

Air temperature 10.6° C
Dewpoint 4.5° C

Last reported at 2014-Apr-20 07:49 UTC.
Time now 2014-Apr-20 08:47 UTC

Location: N 40°53' W 003°35'.
View on Google Maps.

See reports from other nearby stations

Tides Stations Pressure Air Temp Water Temp Dewpoint Dewpoint depression Visibility Wind Speed Wind Dir Waves Ship positions

  
sailing weather and tide predictions

DW4212 La Cabrera ES weather

date/time (UTC)wind fromknots sea level pressurealtimeterstation pressurevisibilityair tempwater tempwave heightnotes
2014-Apr-20 07:49 051 10.6
2014-Apr-20 07:39 167 10.0
2014-Apr-20 07:29 167 8.3
2014-Apr-20 07:19 165 8.3
2014-Apr-20 07:09 311 0 gusting 2 8.9
2014-Apr-20 06:09 306 0 gusting 6 8.3
2014-Apr-20 05:59 314 2 gusting 8 8.3
2014-Apr-20 05:49 312 1 gusting 6 7.8
2014-Apr-20 05:39 342 1 gusting 6 7.8
2014-Apr-20 05:29 325 7.8
2014-Apr-20 05:19 330 0 gusting 4 7.8
2014-Apr-20 05:09 287 2 gusting 6 7.2
2014-Apr-20 04:09 166 8.3
2014-Apr-20 03:59 166 0 gusting 2 7.8
2014-Apr-20 03:49 166 7.8
2014-Apr-20 03:39 166 8.3
2014-Apr-20 03:29 166 8.3
2014-Apr-20 02:59 166 8.3
2014-Apr-20 02:49 166 7.8
2014-Apr-20 02:39 166 8.3
2014-Apr-20 02:29 166 8.3
2014-Apr-20 01:59 166 8.9
2014-Apr-20 01:49 166 8.9
2014-Apr-20 01:39 166 9.4
2014-Apr-20 01:29 166 9.4
2014-Apr-20 00:49 166 10.0
2014-Apr-20 00:39 166 10.6
2014-Apr-20 00:29 166 10.6
2014-Apr-19 23:39 084 11.1
2014-Apr-19 23:29 084 11.1
2014-Apr-19 23:19 083 11.1
2014-Apr-19 23:09 084 11.1
2014-Apr-19 22:59 070 0 gusting 4 11.7
2014-Apr-19 22:09 301 2 gusting 8 12.8
2014-Apr-19 21:59 325 0 gusting 3 12.8
2014-Apr-19 21:49 232 12.8
2014-Apr-19 21:39 229 0 gusting 6 12.8
2014-Apr-19 21:29 271 0 gusting 6 12.8
2014-Apr-19 20:59 238 1 gusting 6 13.3
2014-Apr-19 20:49 184 0 gusting 4 13.3
2014-Apr-19 20:39 250 1 gusting 6 13.3
2014-Apr-19 20:29 238 2 gusting 6 13.3
2014-Apr-19 20:19 251 2 gusting 7 13.3
2014-Apr-19 20:09 229 2 gusting 6 13.3
2014-Apr-19 19:49 208 0 gusting 6 13.9
2014-Apr-19 19:39 213 0 gusting 5 13.9
2014-Apr-19 19:29 223 0 gusting 4 14.4
2014-Apr-19 19:19 223 0 gusting 6 14.4
2014-Apr-19 19:09 188 0 gusting 5 15.0
2014-Apr-19 18:59 232 15.0
2014-Apr-19 18:49 236 1 gusting 4 15.0
2014-Apr-19 18:39 252 0 gusting 7 15.6
2014-Apr-19 18:29 260 5 gusting 15 15.6
2014-Apr-19 18:19 244 3 gusting 8 16.1
2014-Apr-19 18:09 198 1 gusting 8 16.1
2014-Apr-19 17:59 213 2 gusting 8 16.7
2014-Apr-19 17:49 205 2 gusting 8 16.7
2014-Apr-19 17:39 192 2 gusting 9 17.2
2014-Apr-19 17:29 198 0 gusting 8 17.8
2014-Apr-19 16:39 253 4 gusting 10 20.0
2014-Apr-19 16:29 246 3 gusting 13 20.6
2014-Apr-19 16:19 203 3 gusting 10 20.0
2014-Apr-19 16:09 187 6 gusting 14 20.6
2014-Apr-19 15:59 259 3 gusting 13 21.1
2014-Apr-19 15:49 215 3 gusting 11 21.1
2014-Apr-19 15:39 267 6 gusting 16 21.7
2014-Apr-19 15:29 196 4 gusting 11 21.1
2014-Apr-19 15:09 238 4 gusting 11 21.7
2014-Apr-19 14:59 194 4 gusting 12 22.2
2014-Apr-19 14:49 210 3 gusting 10 21.7
2014-Apr-19 14:39 180 4 gusting 12 22.2
2014-Apr-19 14:29 163 2 gusting 8 23.9
2014-Apr-19 14:19 200 3 gusting 11 23.9
2014-Apr-19 14:09 244 3 gusting 6 23.3
2014-Apr-19 13:59 266 3 gusting 7 23.3
2014-Apr-19 13:49 191 3 gusting 6 23.9
2014-Apr-19 13:39 261 5 gusting 13 23.9
2014-Apr-19 13:29 267 2 gusting 9 23.3
2014-Apr-19 13:19 189 2 gusting 11 23.3
2014-Apr-19 13:09 225 3 gusting 15 23.9
2014-Apr-19 12:59 253 2 gusting 7 23.3
2014-Apr-19 12:49 195 2 gusting 7 23.3
2014-Apr-19 12:39 192 2 gusting 6 23.9
2014-Apr-19 12:29 267 3 gusting 12 23.3
2014-Apr-19 12:19 163 4 gusting 12 22.8
2014-Apr-19 12:09 192 5 gusting 10 22.8
2014-Apr-19 11:59 125 1 gusting 10 22.2
2014-Apr-19 11:49 205 1 gusting 5 22.8
2014-Apr-19 11:39 255 1 gusting 6 22.8
2014-Apr-19 11:29 189 1 gusting 8 22.2
2014-Apr-19 10:49 191 4 gusting 9 20.0
2014-Apr-19 10:39 178 1 gusting 6 20.0
2014-Apr-19 10:29 189 1 gusting 6 21.1
2014-Apr-19 10:19 184 0 gusting 6 21.1
2014-Apr-19 10:09 198 0 gusting 8 20.6
2014-Apr-19 09:59 204 20.6
2014-Apr-19 09:49 140 0 gusting 7 20.6
2014-Apr-19 09:39 185 2 gusting 6 20.6
2014-Apr-19 09:29 190 1 gusting 6 20.6
2014-Apr-19 09:09 182 0 gusting 5 20.0
2014-Apr-19 08:59 187 20.6
2014-Apr-19 07:59 084 16.7
2014-Apr-19 07:49 084 15.6
2014-Apr-19 07:39 084 15.6
2014-Apr-19 07:29 084 15.6
2014-Apr-19 06:39 084 12.8
2014-Apr-19 06:29 084 12.8
2014-Apr-19 06:19 084 13.9
2014-Apr-19 06:09 084 13.9
2014-Apr-19 05:59 084 13.3
2014-Apr-19 05:49 084 13.3
2014-Apr-19 05:39 084 12.2
2014-Apr-19 05:29 084 12.2
2014-Apr-19 05:19 084 12.2
2014-Apr-19 05:09 084 11.7
2014-Apr-19 04:59 084 11.7
2014-Apr-19 04:49 084 12.2
2014-Apr-19 04:39 084 12.2
2014-Apr-19 04:29 015 12.2
2014-Apr-19 04:19 015 11.1
2014-Apr-19 04:09 015 12.2
2014-Apr-19 03:59 015 12.8
2014-Apr-19 02:59 355 13.9
2014-Apr-19 02:09 355 13.3
2014-Apr-19 01:59 355 13.3
2014-Apr-19 01:19 096 13.3
2014-Apr-19 01:09 096 12.8
2014-Apr-19 00:59 096 12.2
2014-Apr-19 00:49 096 12.2
2014-Apr-19 00:39 096 12.8
2014-Apr-19 00:29 096 0 gusting 4 12.8
2014-Apr-19 00:19 360 14.4
2014-Apr-19 00:09 360 15.0
2014-Apr-18 23:59 360 14.4
2014-Apr-18 22:59 360 14.4
2014-Apr-18 22:49 360 14.4
2014-Apr-18 22:39 360 1 gusting 3 15.0
2014-Apr-18 22:29 360 15.6
2014-Apr-18 21:39 345 17.2
2014-Apr-18 21:29 350 0 gusting 3 17.2
2014-Apr-18 21:19 347 0 gusting 4 17.2
2014-Apr-18 21:09 344 17.2
2014-Apr-18 20:59 319 17.8
2014-Apr-18 20:49 347 0 gusting 3 17.2
2014-Apr-18 20:39 005 0 gusting 5 16.7
2014-Apr-18 20:29 350 17.2
2014-Apr-18 19:39 321 18.3
2014-Apr-18 19:29 322 18.3
2014-Apr-18 19:19 013 0 gusting 4 18.9
2014-Apr-18 19:09 327 0 gusting 3 18.9
2014-Apr-18 18:59 345 0 gusting 4 19.4
2014-Apr-18 17:59 019 0 gusting 7 21.7
2014-Apr-18 17:49 330 3 gusting 9 21.7
2014-Apr-18 17:39 027 1 gusting 11 22.2
2014-Apr-18 17:29 005 3 gusting 11 22.8
2014-Apr-18 17:19 329 1 gusting 7 23.3
2014-Apr-18 17:09 005 3 gusting 9 23.3
2014-Apr-18 16:59 355 2 gusting 8 23.3
2014-Apr-18 16:09 005 3 gusting 10 24.4
2014-Apr-18 15:59 351 3 gusting 10 25.0
2014-Apr-18 15:49 015 3 gusting 13 24.4
2014-Apr-18 15:39 040 0 gusting 6 24.4
2014-Apr-18 15:29 005 4 gusting 7 25.0
2014-Apr-18 15:19 322 3 gusting 8 25.0
2014-Apr-18 15:09 360 2 gusting 8 25.0
2014-Apr-18 14:59 015 3 gusting 11 25.0
2014-Apr-18 14:50 329 2 gusting 8 25.0
2014-Apr-18 14:19 360 1 gusting 11 23.9
2014-Apr-18 13:59 335 1 gusting 6 24.4
2014-Apr-18 13:49 005 3 gusting 10 24.4
2014-Apr-18 13:29 296 0 gusting 11 25.0
2014-Apr-18 13:19 005 3 gusting 9 23.9
2014-Apr-18 13:09 350 2 gusting 11 25.0
2014-Apr-18 12:59 005 2 gusting 10 23.9
2014-Apr-18 12:49 347 4 gusting 12 23.3
2014-Apr-18 12:39 064 3 gusting 10 23.3
2014-Apr-18 12:29 034 4 gusting 10 23.3
2014-Apr-18 12:19 355 6 gusting 13 22.8
2014-Apr-18 12:09 005 0 gusting 9 22.8
2014-Apr-18 11:59 043 1 gusting 7 23.3
2014-Apr-18 11:49 300 4 gusting 7 22.8
2014-Apr-18 11:39 021 1 gusting 6 22.8
2014-Apr-18 11:29 338 0 gusting 7 22.2
2014-Apr-18 11:19 005 0 gusting 5 22.2
2014-Apr-18 11:09 013 5 gusting 8 22.8
2014-Apr-18 10:59 019 1 gusting 9 22.2
2014-Apr-18 10:49 012 2 gusting 7 22.2
2014-Apr-18 10:39 355 2 gusting 5 22.2
2014-Apr-18 10:29 040 4 gusting 8 22.8
2014-Apr-18 10:19 022 3 gusting 6 22.8
2014-Apr-18 09:39 005 1 gusting 5 21.1
2014-Apr-18 09:29 161 21.1
2014-Apr-18 09:19 173 21.1
2014-Apr-18 09:09 173 0 gusting 2 21.1
2014-Apr-18 08:59 175 20.0
2014-Apr-18 08:49 171 0 gusting 3 20.0
2014-Apr-18 08:39 137 19.4
2014-Apr-18 08:29 065 18.9
2014-Apr-18 08:19 065 0 gusting 2 18.3